Time;durP1;ratioP1;P1;durP2;ratioP2;P2;SDS_P1;SDS_P2;PMS_P1;PMS_P2;Temp;Humidity;BMP_temperature;BMP_pressure;BME280_temperature;BME280_humidity;BME280_pressure;Samples;Min_cycle;Max_cycle;Signal;HPM_P1;HPM_P2
2023/07/20 07:23:05;;;;;;;3.65;3.25;;;;;;;-145.79;67.50;77178.03;5287774;28;20916;-72
2023/07/20 07:25:36;;;;;;;7.32;6.63;;;;;;;-145.79;66.50;77195.00;5288634;28;20041;-75
2023/07/20 07:28:08;;;;;;;44.38;40.15;;;;;;;-145.79;67.13;77178.03;5291684;28;20028;-73
2023/07/20 07:30:39;;;;;;;7.82;7.03;;;;;;;-145.79;66.21;77182.28;5291944;28;20495;-72
2023/07/20 07:33:10;;;;;;;3.35;3.05;;;;;;;-145.79;66.09;77165.31;5289548;28;20029;-73
2023/07/20 07:35:42;;;;;;;3.78;3.00;;;;;;;-145.79;66.28;77131.41;5283551;28;20036;-73
2023/07/20 07:38:13;;;;;;;3.38;2.53;;;;;;;-145.79;65.38;77116.56;5278666;28;20031;-73
2023/07/20 07:40:45;;;;;;;3.50;3.20;;;;;;;-145.79;65.28;77131.41;5288283;28;20028;-72
2023/07/20 07:43:16;;;;;;;13.00;3.13;;;;;;;-145.79;64.36;77122.94;5289750;28;20025;-72
2023/07/20 07:45:48;;;;;;;3.05;2.75;;;;;;;-145.79;63.58;77125.03;5292413;28;20544;-72
2023/07/20 07:48:21;;;;;;;2.72;2.50;;;;;;;-145.79;62.67;77097.50;5292120;28;20048;-73
2023/07/20 07:50:53;;;;;;;3.28;2.83;;;;;;;-145.79;63.30;77118.69;5291350;28;20039;-72
2023/07/20 07:53:25;;;;;;;3.17;1.80;;;;;;;-145.79;61.68;77122.94;5275822;28;20029;-73
2023/07/20 07:55:58;;;;;;;2.53;1.27;;;;;;;-145.79;60.39;77139.88;5292296;28;20024;-73
2023/07/20 07:58:31;;;;;;;2.13;1.83;;;;;;;-145.79;59.95;77112.31;5288872;28;20028;-73
2023/07/20 08:01:02;;;;;;;2.45;1.40;;;;;;;-145.79;60.34;77080.53;5287645;28;20037;-73
2023/07/20 08:03:35;;;;;;;1.48;1.30;;;;;;;-145.79;58.86;77095.38;5289014;28;20476;-73
2023/07/20 08:06:06;;;;;;;1.67;1.23;;;;;;;-145.79;58.45;77114.44;5292023;28;20039;-74
2023/07/20 08:08:38;;;;;;;1.40;1.10;;;;;;;-145.79;59.22;77122.94;5291706;28;20487;-74
2023/07/20 08:11:12;;;;;;;2.20;1.27;;;;;;;-145.79;59.14;77116.56;5289288;28;20033;-74
2023/07/20 08:13:46;;;;;;;3.80;2.17;;;;;;;-145.79;59.05;77093.25;5289328;28;20105;-74
2023/07/20 08:16:18;;;;;;;4.90;4.50;;;;;;;-145.79;59.20;77093.25;5291640;28;20045;-74
2023/07/20 08:18:49;;;;;;;1.48;1.38;;;;;;;-145.79;57.99;77025.44;5288584;28;20028;-73
2023/07/20 08:21:21;;;;;;;4.05;1.40;;;;;;;-145.79;57.08;77027.56;5287439;28;20060;-73
2023/07/20 08:23:52;;;;;;;2.47;1.50;;;;;;;-145.79;56.63;76980.94;5295857;28;20375;-74
2023/07/20 08:26:24;;;;;;;1.25;1.13;;;;;;;-145.79;55.99;76991.53;5285016;28;20017;-74
2023/07/20 08:28:56;;;;;;;1.48;1.05;;;;;;;-145.79;55.15;76957.59;5285731;28;20090;-74
2023/07/20 08:31:28;;;;;;;2.05;1.60;;;;;;;-145.79;54.43;76978.81;5290039;28;20028;-74
2023/07/20 08:33:59;;;;;;;1.17;0.95;;;;;;;-145.79;53.08;76966.09;5276165;28;20033;-72
2023/07/20 08:36:33;;;;;;;1.13;0.90;;;;;;;-145.79;52.73;76985.16;5277532;28;20024;-72
2023/07/20 08:39:04;;;;;;;1.52;0.90;;;;;;;-145.79;53.44;76974.56;5274601;28;20135;-72
2023/07/20 08:41:39;;;;;;;1.60;1.50;;;;;;;-145.79;53.17;76963.97;5273208;28;20112;-73
2023/07/20 08:44:11;;;;;;;2.92;1.35;;;;;;;-145.79;53.31;76961.84;5268386;28;20065;-73
2023/07/20 08:46:42;;;;;;;2.42;1.00;;;;;;;-145.79;52.92;76919.47;5271370;28;20067;-73
2023/07/20 08:49:17;;;;;;;2.15;1.42;;;;;;;-145.79;52.49;76932.19;5274156;28;20035;-71
2023/07/20 08:51:49;;;;;;;139.80;127.40;;;;;;;-145.79;52.73;76940.66;5277171;28;20384;-73
2023/07/20 08:54:21;;;;;;;5.18;4.68;;;;;;;-145.79;53.59;76953.38;5274936;28;20029;-73
2023/07/20 08:56:55;;;;;;;1.73;1.63;;;;;;;-145.79;53.35;76951.25;5272782;28;20095;-74
2023/07/20 08:59:29;;;;;;;1.13;0.98;;;;;;;-145.79;53.20;76957.59;5274352;28;20087;-73
2023/07/20 09:02:02;;;;;;;1.17;1.08;;;;;;;-145.79;53.03;76974.56;5274916;28;20391;-72
2023/07/20 09:04:33;;;;;;;0.95;0.90;;;;;;;-145.79;52.83;76966.09;5274345;28;20024;-74
2023/07/20 09:07:05;;;;;;;1.80;1.13;;;;;;;-145.79;52.03;76989.41;5271907;28;20570;-73
2023/07/20 09:09:41;;;;;;;2.33;1.00;;;;;;;-145.79;52.29;76980.94;5273975;28;20476;-72
2023/07/20 09:12:14;;;;;;;1.17;1.00;;;;;;;-145.79;51.96;76940.66;5276675;28;20482;-73
2023/07/20 09:14:47;;;;;;;2.30;1.05;;;;;;;-145.79;51.41;76927.94;5273070;28;20028;-73
2023/07/20 09:17:19;;;;;;;2.83;0.98;;;;;;;-145.79;49.95;76896.16;5272130;28;20025;-73
2023/07/20 09:19:51;;;;;;;17.55;14.52;;;;;;;-145.79;48.66;76894.03;5272896;28;20384;-73
2023/07/20 09:22:30;;;;;;;1.48;1.23;;;;;;;-145.79;49.65;76889.78;5275897;28;20072;-76
2023/07/20 09:25:02;;;;;;;1.00;0.90;;;;;;;-145.79;49.20;76870.72;5273285;28;20036;-73
2023/07/20 09:27:41;;;;;;;1.40;1.20;;;;;;;-145.79;48.34;76868.59;5272552;28;20024;-73
2023/07/20 09:30:14;;;;;;;1.13;0.95;;;;;;;-145.79;49.15;76881.31;5275002;28;20055;-72
2023/07/20 09:32:47;;;;;;;1.33;1.20;;;;;;;-145.79;49.94;76843.16;5276717;28;20344;-75
2023/07/20 09:35:22;;;;;;;3.63;0.93;;;;;;;-145.79;49.69;76830.44;5274717;28;20025;-74
2023/07/20 09:37:59;;;;;;;1.85;1.13;;;;;;;-145.79;49.38;76821.97;5275864;28;20032;-72
2023/07/20 09:40:30;;;;;;;3.58;2.10;;;;;;;-145.79;48.89;76813.50;5271993;28;20434;-73
2023/07/20 09:43:08;;;;;;;1.98;1.15;;;;;;;-145.79;49.29;76841.03;5271370;28;20040;-73
2023/07/20 09:45:44;;;;;;;1.92;1.15;;;;;;;-145.79;49.05;76853.75;5270561;28;20020;-73
2023/07/20 09:48:15;;;;;;;21.15;19.15;;;;;;;-145.79;49.43;76836.81;5272165;28;20097;-73
2023/07/20 09:50:51;;;;;;;2.17;1.95;;;;;;;-145.79;50.26;76853.75;5270965;28;20028;-74
2023/07/20 09:53:25;;;;;;;2.08;1.25;;;;;;;-145.79;50.51;76864.34;5265395;28;20480;-74
2023/07/20 09:55:57;;;;;;;2.78;1.35;;;;;;;-145.79;50.47;76894.03;5277616;28;20024;-73
2023/07/20 09:58:29;;;;;;;1.63;1.25;;;;;;;-145.79;50.32;76902.50;5272688;28;20106;-74
2023/07/20 10:01:07;;;;;;;1.40;1.30;;;;;;;-145.79;50.73;76896.16;5269762;28;20476;-74
2023/07/20 10:03:38;;;;;;;1.50;1.08;;;;;;;-145.79;51.30;76915.22;5272004;28;20025;-73
2023/07/20 10:06:15;;;;;;;2.33;1.20;;;;;;;-145.79;51.30;76915.22;5271516;28;20035;-74
2023/07/20 10:08:48;;;;;;;4.22;1.50;;;;;;;-145.79;51.52;76906.75;5273160;28;20089;-74
2023/07/20 10:11:25;;;;;;;2.80;1.42;;;;;;;-145.79;51.38;76900.38;5267031;28;20031;-73
2023/07/20 10:14:02;;;;;;;1.33;0.82;;;;;;;-145.79;50.50;76832.56;5271260;28;20400;-74
2023/07/20 10:16:47;;;;;;;10.77;8.90;;;;;;;-145.79;50.57;76817.72;5271751;28;20021;-74
2023/07/20 10:19:25;;;;;;;1.95;1.40;;;;;;;-145.79;49.92;76796.53;5274549;28;20078;-75
2023/07/20 10:22:22;;;;;;;2.22;1.50;;;;;;;-145.79;49.95;76764.75;5271641;28;20041;-74
2023/07/20 10:24:54;;;;;;;2.10;1.60;;;;;;;-145.79;49.25;76781.69;5270230;28;20155;-73
2023/07/20 10:27:26;;;;;;;1.63;1.48;;;;;;;-145.79;49.57;76754.16;5267346;28;20104;-74
2023/07/20 10:29:58;;;;;;;4.80;1.70;;;;;;;-145.79;48.02;76722.34;5273220;28;20029;-76
2023/07/20 10:32:30;;;;;;;2.75;1.35;;;;;;;-145.79;47.68;76726.59;5274000;28;20029;-72
2023/07/20 10:35:12;;;;;;;6.30;4.55;;;;;;;-145.79;47.88;76728.72;5272920;28;20031;-72
2023/07/20 10:38:03;;;;;;;2.83;1.58;;;;;;;-145.79;47.97;76737.19;5270752;28;20545;-75
2023/07/20 10:40:38;;;;;;;2.00;1.25;;;;;;;-145.79;48.18;76728.72;5263223;28;20033;-74
2023/07/20 10:43:10;;;;;;;1.55;1.15;;;;;;;-145.79;47.36;76760.50;5266890;28;20045;-75
2023/07/20 10:45:52;;;;;;;1.10;1.00;;;;;;;-145.79;46.58;76754.16;5274076;28;20032;-74
2023/07/20 10:48:25;;;;;;;1.42;0.90;;;;;;;-145.79;45.65;76754.16;5275568;28;20089;-74
2023/07/20 10:51:16;;;;;;;2.33;1.40;;;;;;;-145.79;48.02;76749.91;5274725;28;20086;-74
2023/07/20 10:53:49;;;;;;;2.72;1.20;;;;;;;-145.79;47.91;76758.38;5263222;28;20052;-73
2023/07/20 10:56:22;;;;;;;3.08;1.10;;;;;;;-145.79;47.40;76773.22;5278440;28;20031;-73
2023/07/20 10:59:00;;;;;;;1.27;0.90;;;;;;;-145.79;47.40;76758.38;5270289;28;20056;-72
2023/07/20 11:01:36;;;;;;;3.03;1.30;;;;;;;-145.79;46.58;76756.28;5261623;28;20107;-73
2023/07/20 11:04:09;;;;;;;1.42;1.13;;;;;;;-145.79;46.74;76741.44;5269199;28;20043;-74
2023/07/20 11:06:56;;;;;;;3.42;1.20;;;;;;;-145.79;46.61;76737.19;5270543;28;20423;-73
2023/07/20 11:09:35;;;;;;;2.60;1.05;;;;;;;-145.79;46.53;76749.91;5270675;28;20039;-73
2023/07/20 11:12:17;;;;;;;2.60;0.82;;;;;;;-145.79;46.27;76758.38;5274526;28;20074;-72
2023/07/20 11:14:57;;;;;;;20.65;18.70;;;;;;;-145.79;46.17;76764.75;5272568;28;20028;-72
2023/07/20 11:17:32;;;;;;;2.75;1.20;;;;;;;-145.79;46.51;76762.63;5271968;28;20032;-73
2023/07/20 11:20:04;;;;;;;3.42;1.10;;;;;;;-145.79;46.61;76749.91;5263377;28;20025;-76
2023/07/20 11:22:36;;;;;;;1.10;0.90;;;;;;;-145.79;46.34;76741.44;5270733;28;20041;-75
2023/07/20 11:25:10;;;;;;;2.80;0.98;;;;;;;-145.79;46.83;76730.84;5276156;28;20029;-75
2023/07/20 11:27:46;;;;;;;1.20;0.85;;;;;;;-145.79;46.47;76703.28;5274592;28;20632;-76
2023/07/20 11:30:18;;;;;;;1.98;0.95;;;;;;;-145.79;46.00;76703.28;5270686;28;20071;-76
2023/07/20 11:32:49;;;;;;;1.30;1.00;;;;;;;-145.79;45.41;76684.22;5270543;28;20163;-74
2023/07/20 11:35:20;;;;;;;1.10;0.90;;;;;;;-145.79;45.30;76650.31;5267600;28;20112;-73
2023/07/20 11:37:52;;;;;;;2.75;1.00;;;;;;;-145.79;44.78;76669.38;5270021;28;20025;-73
2023/07/20 11:40:24;;;;;;;2.33;2.13;;;;;;;-145.79;45.25;76677.84;5274007;28;20035;-74
2023/07/20 11:42:55;;;;;;;1.63;1.20;;;;;;;-145.79;45.13;76694.81;5273171;28;20036;-73
2023/07/20 11:45:27;;;;;;;2.90;1.05;;;;;;;-145.79;45.41;76690.56;5271097;28;20033;-74
2023/07/20 11:47:59;;;;;;;2.85;1.10;;;;;;;-145.79;45.93;76679.97;5273958;28;20020;-74
2023/07/20 11:50:40;;;;;;;4.07;1.92;;;;;;;-145.79;46.11;76669.38;5266815;28;20083;-73
2023/07/20 11:53:13;;;;;;;3.38;1.20;;;;;;;-145.79;45.50;76682.09;5267364;28;20428;-74
2023/07/20 11:55:45;;;;;;;2.53;1.00;;;;;;;-145.79;45.83;76654.53;5273336;28;20021;-74
2023/07/20 11:58:17;;;;;;;2.83;1.45;;;;;;;-145.79;45.45;76677.84;5272720;28;20086;-74
2023/07/20 12:00:48;;;;;;;1.58;1.00;;;;;;;-145.79;45.71;76686.34;5267740;28;20119;-74
2023/07/20 12:03:20;;;;;;;3.17;1.02;;;;;;;-145.79;45.26;76701.16;5246165;28;20032;-74
2023/07/20 12:05:51;;;;;;;2.70;0.90;;;;;;;-145.79;45.79;76677.84;5274036;28;20035;-74
2023/07/20 12:08:25;;;;;;;2.58;1.10;;;;;;;-145.79;45.61;76660.91;5269394;28;20032;-76
2023/07/20 12:10:57;;;;;;;1.33;1.00;;;;;;;-145.79;45.16;76622.75;5272925;28;20166;-74
2023/07/20 12:13:40;;;;;;;2.42;1.25;;;;;;;-145.79;44.57;76601.56;5274023;28;20139;-74
2023/07/20 12:16:16;;;;;;;3.03;1.75;;;;;;;-145.79;44.04;76569.78;5277494;28;20220;-74
2023/07/20 12:18:50;;;;;;;2.70;1.33;;;;;;;-145.79;43.96;76563.41;5273800;28;20028;-72
2023/07/20 12:21:21;;;;;;;2.45;2.25;;;;;;;-145.79;44.15;76605.81;5267696;28;20067;-74
2023/07/20 12:23:53;;;;;;;2.47;1.42;;;;;;;-145.79;44.52;76614.28;5280813;28;20027;-72
2023/07/20 12:26:25;;;;;;;1.50;1.23;;;;;;;-145.79;44.75;76631.22;5269814;28;20083;-72
2023/07/20 12:28:57;;;;;;;2.17;1.17;;;;;;;-145.79;45.10;76652.44;5275046;28;20078;-72
2023/07/20 12:31:29;;;;;;;1.23;1.13;;;;;;;-145.79;45.45;76654.53;5276358;28;20043;-72
2023/07/20 12:34:01;;;;;;;1.38;1.23;;;;;;;-145.79;45.80;76648.19;5274545;28;20047;-71
2023/07/20 12:36:32;;;;;;;1.38;1.27;;;;;;;-145.79;45.62;76656.66;5279467;28;20025;-74
2023/07/20 12:39:03;;;;;;;1.70;1.23;;;;;;;-145.79;45.24;76671.50;5274471;28;20025;-74
2023/07/20 12:41:35;;;;;;;1.15;1.05;;;;;;;-145.79;45.85;76669.38;5269962;28;20049;-74
2023/07/20 12:44:06;;;;;;;2.85;1.25;;;;;;;-145.79;45.53;76684.22;5272037;28;20029;-74
2023/07/20 12:46:38;;;;;;;2.10;1.20;;;;;;;-145.79;45.88;76703.28;5276083;28;20064;-74
2023/07/20 12:49:09;;;;;;;1.40;1.23;;;;;;;-145.79;45.74;76673.63;5273770;28;20025;-74
2023/07/20 12:51:41;;;;;;;3.28;1.60;;;;;;;-145.79;45.83;76643.94;5277352;28;20063;-72
2023/07/20 12:54:14;;;;;;;1.77;1.30;;;;;;;-145.79;45.75;76637.59;5273192;28;20099;-72
2023/07/20 12:56:45;;;;;;;1.92;1.13;;;;;;;-145.79;45.73;76637.59;5270167;28;20020;-71
2023/07/20 12:59:16;;;;;;;1.30;1.20;;;;;;;-145.79;45.26;76643.94;5259802;28;20430;-73
2023/07/20 13:01:48;;;;;;;2.13;1.20;;;;;;;-145.79;45.64;76648.19;5280439;28;20044;-73
2023/07/20 13:04:19;;;;;;;1.48;1.10;;;;;;;-145.79;45.52;76652.44;5273052;28;20025;-71
2023/07/20 13:06:50;;;;;;;1.85;1.23;;;;;;;-145.79;45.78;76658.78;5272012;28;20029;-72
2023/07/20 13:09:22;;;;;;;1.83;1.50;;;;;;;-145.79;45.97;76682.09;5269155;28;20025;-72
2023/07/20 13:11:53;;;;;;;3.15;1.30;;;;;;;-145.79;46.08;76679.97;5275187;28;20036;-71
2023/07/20 13:14:25;;;;;;;1.40;1.30;;;;;;;-145.79;46.15;76665.16;5262590;28;20048;-71
2023/07/20 13:16:56;;;;;;;2.10;1.30;;;;;;;-145.79;45.71;76660.91;5274622;28;20021;-71
2023/07/20 13:19:28;;;;;;;4.75;1.73;;;;;;;-145.79;45.71;76656.66;5275851;28;20104;-71
2023/07/20 13:21:59;;;;;;;3.13;1.70;;;;;;;-145.79;45.23;76646.06;5271406;28;20068;-70
2023/07/20 13:24:30;;;;;;;2.78;1.40;;;;;;;-145.79;45.55;76633.34;5258051;28;20029;-71
2023/07/20 13:27:02;;;;;;;1.45;1.13;;;;;;;-145.79;45.54;76622.75;5254687;28;20082;-71
2023/07/20 13:29:33;;;;;;;1.77;1.00;;;;;;;-145.79;45.42;76590.97;5270027;28;20095;-71
2023/07/20 13:32:06;;;;;;;2.63;1.60;;;;;;;-145.79;44.86;76586.72;5275184;28;20071;-71
2023/07/20 13:34:37;;;;;;;3.58;1.23;;;;;;;-145.79;44.79;76527.38;5265812;28;20025;-71
2023/07/20 13:37:09;;;;;;;1.85;1.30;;;;;;;-145.79;44.29;76508.31;5264268;28;20396;-71
2023/07/20 13:39:40;;;;;;;2.10;1.50;;;;;;;-145.79;44.14;76499.84;5272251;28;20029;-72
2023/07/20 13:42:12;;;;;;;1.50;1.40;;;;;;;-145.79;43.52;76461.69;5273940;28;20089;-73
2023/07/20 13:44:44;;;;;;;2.97;1.70;;;;;;;-145.79;42.91;76440.50;5270982;28;20105;-72
2023/07/20 13:47:15;;;;;;;2.00;1.77;;;;;;;-145.79;42.31;76423.56;5271474;28;20025;-72
2023/07/20 13:49:46;;;;;;;2.58;1.70;;;;;;;-145.79;41.95;76398.13;5266272;28;20032;-72
2023/07/20 13:52:18;;;;;;;2.28;2.08;;;;;;;-145.79;41.92;76366.34;5271730;28;20025;-71
2023/07/20 13:54:52;;;;;;;2.72;1.90;;;;;;;-145.79;41.64;76368.47;5273260;28;20035;-71
2023/07/20 13:57:23;;;;;;;2.63;1.83;;;;;;;-145.79;41.09;76357.84;5270506;28;20071;-72
2023/07/20 13:59:54;;;;;;;2.80;2.00;;;;;;;-145.79;40.22;76366.34;5271231;28;20060;-71
2023/07/20 14:02:26;;;;;;;18.58;16.67;;;;;;;-145.79;39.45;76330.31;5272467;28;20062;-71
2023/07/20 14:04:58;;;;;;;6.63;5.93;;;;;;;-145.79;39.23;76334.56;5275655;28;20040;-71
2023/07/20 14:07:29;;;;;;;3.42;2.08;;;;;;;-145.79;39.51;76304.88;5257946;28;20032;-72
2023/07/20 14:10:00;;;;;;;2.20;2.00;;;;;;;-145.79;39.56;76317.59;5268036;28;20108;-72
2023/07/20 14:12:32;;;;;;;2.38;2.17;;;;;;;-145.79;39.79;76355.75;5272016;28;20567;-69
2023/07/20 14:15:04;;;;;;;1.98;1.75;;;;;;;-145.79;40.45;76376.94;5270103;28;20083;-69
2023/07/20 14:17:36;;;;;;;2.47;2.28;;;;;;;-145.79;41.10;76415.06;5270908;28;20029;-70
2023/07/20 14:20:10;;;;;;;6.75;3.75;;;;;;;-145.79;40.97;76396.00;5276020;28;20091;-69
2023/07/20 14:22:42;;;;;;;3.95;1.77;;;;;;;-145.79;41.73;76383.28;5273452;28;20057;-70
2023/07/20 14:25:13;;;;;;;2.13;1.83;;;;;;;-145.79;41.42;76393.88;5267132;28;20033;-70
2023/07/20 14:27:45;;;;;;;5.03;2.10;;;;;;;-145.79;41.54;76393.88;5268917;28;20469;-71
2023/07/20 14:30:16;;;;;;;2.42;2.22;;;;;;;-145.79;40.95;76412.97;5271255;28;20025;-71
2023/07/20 14:32:48;;;;;;;1.80;1.70;;;;;;;-145.79;40.96;76381.16;5271302;28;20066;-71
2023/07/20 14:35:19;;;;;;;2.60;1.70;;;;;;;-145.79;40.92;76389.66;5269085;28;20092;-71
2023/07/20 14:37:51;;;;;;;1.70;1.60;;;;;;;-145.79;41.03;76383.28;5272366;28;20024;-72
2023/07/20 14:40:22;;;;;;;2.30;1.90;;;;;;;-145.79;41.13;76393.88;5269655;28;20025;-72
2023/07/20 14:42:55;;;;;;;2.75;1.58;;;;;;;-145.79;40.93;76408.72;5258464;28;20025;-73
2023/07/20 14:45:29;;;;;;;2.63;1.50;;;;;;;-145.79;41.62;76410.84;5279005;28;20020;-71
2023/07/20 14:48:01;;;;;;;2.53;1.40;;;;;;;-145.79;41.40;76376.94;5273866;28;20021;-71
2023/07/20 14:50:32;;;;;;;2.05;1.50;;;;;;;-145.79;41.18;76423.56;5263269;28;20107;-71
2023/07/20 14:53:03;;;;;;;3.10;1.40;;;;;;;-145.79;41.04;76421.44;5262301;28;20056;-72
2023/07/20 14:55:35;;;;;;;4.18;1.70;;;;;;;-145.79;41.47;76412.97;5262296;28;20025;-71
2023/07/20 14:58:06;;;;;;;2.13;1.90;;;;;;;-145.79;41.84;76432.03;5264402;28;20045;-72
2023/07/20 15:00:37;;;;;;;1.90;1.70;;;;;;;-145.79;41.91;76423.56;5272824;28;20391;-73
2023/07/20 15:03:09;;;;;;;4.75;2.97;;;;;;;-145.79;42.77;76448.97;5274259;28;20111;-73
2023/07/20 15:05:41;;;;;;;4.07;2.35;;;;;;;-145.79;42.62;76436.28;5274122;28;20029;-73
2023/07/20 15:08:13;;;;;;;1.75;1.65;;;;;;;-145.79;43.02;76457.47;5274490;28;20098;-71
2023/07/20 15:10:46;;;;;;;3.10;2.20;;;;;;;-145.79;42.59;76455.34;5266495;28;20017;-71
2023/07/20 15:13:17;;;;;;;2.10;1.70;;;;;;;-145.79;43.01;76444.75;5273746;28;20450;-70
2023/07/20 15:15:49;;;;;;;2.13;1.65;;;;;;;-145.79;42.78;76440.50;5269577;28;20104;-69
2023/07/20 15:18:20;;;;;;;2.97;2.13;;;;;;;-145.79;42.56;76470.19;5268538;28;20025;-70
2023/07/20 15:20:53;;;;;;;2.05;1.85;;;;;;;-145.79;42.62;76480.78;5271825;28;20059;-70
2023/07/20 15:23:24;;;;;;;3.00;1.98;;;;;;;-145.79;42.67;76482.88;5273697;28;20025;-70
2023/07/20 15:25:56;;;;;;;7.00;4.50;;;;;;;-145.79;42.77;76472.28;5270338;28;20115;-71
2023/07/20 15:28:27;;;;;;;1.70;1.60;;;;;;;-145.79;42.70;76474.41;5242776;28;20017;-71
2023/07/20 15:31:03;;;;;;;2.00;1.80;;;;;;;-145.79;42.84;76465.94;5269067;28;20039;-73
2023/07/20 15:33:34;;;;;;;2.22;1.52;;;;;;;-145.79;42.79;76461.69;5267259;28;20044;-71
2023/07/20 15:36:06;;;;;;;3.40;2.58;;;;;;;-145.79;42.73;76474.41;5272569;28;20051;-71
2023/07/20 15:38:38;;;;;;;5.38;4.47;;;;;;;-145.79;42.98;76474.41;5268648;28;20103;-71
2023/07/20 15:41:10;;;;;;;2.75;2.00;;;;;;;-145.79;42.99;76459.56;5270870;28;20473;-71
2023/07/20 15:43:44;;;;;;;3.10;1.83;;;;;;;-145.79;42.98;76465.94;5270220;28;20064;-68
2023/07/20 15:46:18;;;;;;;3.00;1.70;;;;;;;-145.79;42.90;76453.22;5275138;28;20056;-68
2023/07/20 15:48:52;;;;;;;2.40;1.77;;;;;;;-145.79;42.48;76448.97;5263207;28;20036;-71
2023/07/20 15:51:23;;;;;;;3.92;1.50;;;;;;;-145.79;42.56;76451.09;5276074;28;20031;-71
2023/07/20 15:53:55;;;;;;;2.22;1.90;;;;;;;-145.79;42.76;76472.28;5277972;28;20041;-71
2023/07/20 15:56:26;;;;;;;2.10;1.80;;;;;;;-145.79;42.92;76468.06;5274542;28;20464;-71
2023/07/20 15:58:57;;;;;;;2.78;1.70;;;;;;;-145.79;42.93;76468.06;5273929;28;20055;-72
2023/07/20 16:01:31;;;;;;;2.05;1.67;;;;;;;-145.79;42.96;76476.53;5272682;28;20091;-71
2023/07/20 16:04:05;;;;;;;2.13;1.95;;;;;;;-145.79;42.74;76482.88;5267314;28;20071;-73
2023/07/20 16:06:36;;;;;;;2.17;1.60;;;;;;;-145.79;42.89;76478.66;5280272;28;20044;-73
2023/07/20 16:09:08;;;;;;;2.13;1.60;;;;;;;-145.79;43.16;76476.53;5272881;28;20029;-71
2023/07/20 16:11:39;;;;;;;1.80;1.42;;;;;;;-145.79;43.01;76480.78;5273657;28;20099;-74
2023/07/20 16:14:11;;;;;;;2.95;1.45;;;;;;;-145.79;43.10;76476.53;5271653;28;20568;-71
2023/07/20 16:16:42;;;;;;;3.60;1.80;;;;;;;-145.79;43.07;76478.66;5265890;28;20018;-71
2023/07/20 16:19:14;;;;;;;49.95;45.63;;;;;;;-145.79;42.97;76474.41;5273703;28;20379;-72
2023/07/20 16:21:45;;;;;;;3.42;2.55;;;;;;;-145.79;43.15;76474.41;5275212;28;20075;-73
2023/07/20 16:24:18;;;;;;;6.32;2.80;;;;;;;-145.79;43.07;76485.00;5273266;28;20435;-72
2023/07/20 16:26:49;;;;;;;5.38;2.20;;;;;;;-145.79;43.62;76478.66;5273577;28;20022;-71
2023/07/20 16:29:24;;;;;;;2.33;2.00;;;;;;;-145.79;43.37;76491.38;5262319;28;20017;-73
2023/07/20 16:31:55;;;;;;;2.70;1.58;;;;;;;-145.79;43.63;76491.38;5276503;28;20025;-74
2023/07/20 16:34:29;;;;;;;4.30;3.80;;;;;;;-145.79;43.61;76482.88;5272742;28;20017;-75
2023/07/20 16:37:02;;;;;;;4.43;1.90;;;;;;;-145.79;43.62;76499.84;5276772;28;20021;-73
2023/07/20 16:39:36;;;;;;;2.10;1.65;;;;;;;-145.79;43.70;76487.13;5270932;28;20025;-72
2023/07/20 16:42:08;;;;;;;2.03;1.60;;;;;;;-145.79;43.56;76497.72;5270149;28;20033;-73
2023/07/20 16:44:44;;;;;;;3.10;1.88;;;;;;;-145.79;43.48;76501.97;5274850;28;20028;-73
2023/07/20 16:47:15;;;;;;;4.53;1.67;;;;;;;-145.79;43.59;76489.25;5275727;28;20024;-73
2023/07/20 16:49:48;;;;;;;7.03;5.95;;;;;;;-145.79;43.58;76501.97;5279253;28;20036;-74
2023/07/20 16:52:19;;;;;;;81.88;74.53;;;;;;;-145.79;43.49;76499.84;5273042;28;20056;-73
2023/07/20 16:54:51;;;;;;;8.00;7.13;;;;;;;-145.79;43.57;76504.09;5276163;28;20103;-72
